Terminal Aerodrome Forecast
Issued by NWS

Home | Current Version | Previous Version | Text Only | Print | Product List | Glossary On
Versions: 1 2 3 4 5 6 7 8 9 10 11 12 13 14 15 16 17 18 19 20 21 22 23 24 25 26 27 28 29 30 31 32 33 34 35 36 37 38 39 40
000
FTAK31 PAFA 230521
TAFASC
TAF
PASC 230521Z 2306/2406 07005KT P6SM -RA OVC007
     FM231200 07006KT 4SM -RA BR OVC004
     FM231500 07008KT 2SM -RA BR OVC007
     FM231800 07013KT P6SM -RA OVC007=

USA.gov is the U.S. government's official web portal to all federal, state and local government web resources and services.